Time;durP1;ratioP1;P1;durP2;ratioP2;P2;SDS_P1;SDS_P2;PMS_P1;PMS_P2;Temp;Humidity;BMP_temperature;BMP_pressure;BME280_temperature;BME280_humidity;BME280_pressure;Samples;Min_cycle;Max_cycle;Signal;HPM_P1;HPM_P2
2022/12/08 00:01:22;;;;;;;13.50;7.23;;;3.70;99.90;;;;;;5052021;28;20462;-65
2022/12/08 00:03:50;;;;;;;11.40;7.50;;;3.60;99.90;;;;;;5052418;28;20474;-65
2022/12/08 00:09:23;;;;;;;14.43;7.07;;;3.70;99.90;;;;;;5052225;28;20928;-65
2022/12/08 00:11:54;;;;;;;17.53;7.20;;;3.70;99.90;;;;;;5052078;28;20453;-65
2022/12/08 00:14:30;;;;;;;12.40;6.90;;;3.60;99.90;;;;;;5052187;28;20477;-65
2022/12/08 00:16:57;;;;;;;18.73;7.17;;;3.70;99.90;;;;;;5051216;28;20449;-65
2022/12/08 00:19:24;;;;;;;13.83;7.20;;;3.70;99.90;;;;;;5051864;28;20953;-65
2022/12/08 00:21:52;;;;;;;16.83;7.30;;;3.60;99.90;;;;;;5052187;28;20446;-65
2022/12/08 00:24:19;;;;;;;13.60;6.63;;;3.70;99.90;;;;;;5052062;28;20473;-65
2022/12/08 00:26:46;;;;;;;12.57;7.37;;;3.60;99.90;;;;;;5051770;28;20842;-65
2022/12/08 00:29:13;;;;;;;18.47;7.03;;;3.70;99.90;;;;;;5052050;28;20468;-65
2022/12/08 00:31:41;;;;;;;12.60;7.40;;;3.60;99.90;;;;;;5051779;28;20452;-65
2022/12/08 00:34:08;;;;;;;12.40;7.00;;;3.70;99.90;;;;;;5051648;28;20471;-65
2022/12/08 00:36:35;;;;;;;12.70;7.97;;;3.70;99.90;;;;;;5051788;28;20870;-65
2022/12/08 00:39:01;;;;;;;11.93;6.83;;;3.70;99.90;;;;;;5051700;28;21019;-65
2022/12/08 00:44:14;;;;;;;13.33;6.70;;;3.70;99.90;;;;;;5051710;28;20470;-65
2022/12/08 00:46:42;;;;;;;10.77;7.27;;;3.70;99.90;;;;;;5051296;28;20450;-65
2022/12/08 00:49:09;;;;;;;12.03;6.57;;;3.70;99.90;;;;;;5051911;28;20551;-65
2022/12/08 00:51:36;;;;;;;16.50;7.67;;;3.70;99.90;;;;;;5051586;28;20456;-65
2022/12/08 00:54:03;;;;;;;15.43;6.77;;;3.70;99.90;;;;;;5051715;28;20472;-65
2022/12/08 00:56:30;;;;;;;12.03;6.47;;;3.70;99.90;;;;;;5051255;28;20467;-65
2022/12/08 00:58:57;;;;;;;8.93;7.10;;;3.70;99.90;;;;;;5051428;28;20539;-65
2022/12/08 01:01:23;;;;;;;11.20;6.60;;;3.70;99.90;;;;;;5051702;28;20456;-65
2022/12/08 01:03:51;;;;;;;16.63;7.80;;;3.60;99.90;;;;;;5051648;28;20845;-65
2022/12/08 01:06:18;;;;;;;12.70;7.83;;;3.50;99.90;;;;;;5051441;28;20872;-65
2022/12/08 01:08:45;;;;;;;15.53;7.57;;;3.50;99.90;;;;;;5051628;28;20441;-65
2022/12/08 01:11:15;;;;;;;22.43;8.73;;;3.50;99.90;;;;;;5051350;28;20454;-65
2022/12/08 01:13:42;;;;;;;13.13;8.10;;;3.40;99.90;;;;;;5051154;28;20454;-65
2022/12/08 01:16:10;;;;;;;12.23;7.83;;;3.40;99.90;;;;;;5050853;28;20450;-65
2022/12/08 01:18:37;;;;;;;14.73;8.07;;;3.40;99.90;;;;;;5051357;28;20491;-65
2022/12/08 01:21:06;;;;;;;17.53;8.10;;;3.40;99.90;;;;;;5051236;28;20542;-65
2022/12/08 01:23:33;;;;;;;15.00;8.07;;;3.40;99.90;;;;;;5051074;28;20452;-64
2022/12/08 01:26:03;;;;;;;15.10;8.47;;;3.30;99.90;;;;;;5051025;28;20450;-65
2022/12/08 01:28:31;;;;;;;16.03;8.10;;;3.30;99.90;;;;;;5051503;28;20810;-64
2022/12/08 01:30:58;;;;;;;15.40;8.37;;;3.30;99.90;;;;;;5055125;28;20453;-64
2022/12/08 01:33:26;;;;;;;13.90;8.30;;;3.30;99.90;;;;;;5055255;28;20456;-65
2022/12/08 01:35:52;;;;;;;15.80;8.30;;;3.30;99.90;;;;;;5054842;28;20470;-64
2022/12/08 01:38:21;;;;;;;17.20;8.50;;;3.20;99.90;;;;;;5054799;28;20487;-65
2022/12/08 01:40:49;;;;;;;15.67;7.80;;;3.20;99.90;;;;;;5055061;28;20462;-65
2022/12/08 01:43:17;;;;;;;17.53;8.30;;;3.20;99.90;;;;;;5055093;28;20452;-64
2022/12/08 01:45:44;;;;;;;17.70;8.50;;;3.20;99.90;;;;;;5054627;28;20477;-64
2022/12/08 01:48:14;;;;;;;13.33;8.10;;;3.20;99.90;;;;;;5054893;28;20452;-67
2022/12/08 01:50:42;;;;;;;14.50;8.20;;;3.10;99.90;;;;;;5054596;28;20955;-66
2022/12/08 01:53:14;;;;;;;17.77;7.60;;;3.10;99.90;;;;;;5054957;28;20454;-65
2022/12/08 01:55:46;;;;;;;14.50;8.37;;;3.00;99.90;;;;;;5054374;28;20862;-65
2022/12/08 01:58:18;;;;;;;14.97;8.70;;;3.00;99.90;;;;;;5054526;28;20830;-65
2022/12/08 02:00:45;;;;;;;19.40;8.70;;;3.10;99.90;;;;;;5054566;28;20452;-65
2022/12/08 02:03:15;;;;;;;15.37;9.57;;;3.10;99.90;;;;;;5054378;28;20968;-65
2022/12/08 02:05:43;;;;;;;15.73;7.67;;;3.00;99.90;;;;;;5054291;28;20476;-65
2022/12/08 02:08:12;;;;;;;11.27;8.13;;;3.00;99.90;;;;;;5054682;28;20812;-65
2022/12/08 02:10:41;;;;;;;17.97;9.40;;;3.00;99.90;;;;;;5054380;28;20449;-65
2022/12/08 02:13:14;;;;;;;13.90;7.83;;;3.00;99.90;;;;;;5054431;28;20544;-65
2022/12/08 02:15:47;;;;;;;14.00;8.10;;;3.00;99.90;;;;;;5053624;28;20474;-65
2022/12/08 02:18:27;;;;;;;26.37;9.10;;;2.90;99.90;;;;;;5054426;28;20853;-65
2022/12/08 02:21:02;;;;;;;19.13;10.73;;;3.00;99.90;;;;;;5054226;28;20559;-65
2022/12/08 02:23:37;;;;;;;16.70;8.53;;;3.00;99.90;;;;;;5054206;28;20449;-67
2022/12/08 02:26:43;;;;;;;18.27;8.43;;;3.00;99.90;;;;;;5054249;28;20449;-66
2022/12/08 02:29:39;;;;;;;16.90;9.23;;;3.00;99.90;;;;;;5054177;28;20468;-66
2022/12/08 02:32:24;;;;;;;13.30;7.83;;;3.00;99.90;;;;;;5053800;28;20897;-66
2022/12/08 02:34:59;;;;;;;14.87;8.70;;;3.00;99.90;;;;;;5054076;28;20469;-66
2022/12/08 02:37:31;;;;;;;15.20;8.47;;;3.00;99.90;;;;;;5054017;28;20444;-66
2022/12/08 02:40:06;;;;;;;13.50;8.10;;;3.00;99.90;;;;;;5053793;28;21046;-64
2022/12/08 02:42:37;;;;;;;18.20;9.53;;;3.10;99.90;;;;;;5053582;28;20459;-66
2022/12/08 02:45:10;;;;;;;16.87;8.20;;;3.10;99.90;;;;;;5053919;28;20527;-66
2022/12/08 02:47:38;;;;;;;13.67;8.60;;;3.10;99.90;;;;;;5053878;28;20453;-66
2022/12/08 02:50:07;;;;;;;15.87;7.80;;;3.10;99.90;;;;;;5053628;28;20458;-66
2022/12/08 02:52:44;;;;;;;19.53;7.67;;;3.10;99.90;;;;;;5053651;28;20508;-66
2022/12/08 02:55:18;;;;;;;17.73;7.93;;;3.10;99.90;;;;;;5053557;28;20489;-66
2022/12/08 02:57:56;;;;;;;18.63;8.90;;;3.10;99.90;;;;;;5053604;28;20457;-66
2022/12/08 03:00:24;;;;;;;12.90;8.00;;;3.10;99.90;;;;;;5053691;28;20499;-66
2022/12/08 03:03:04;;;;;;;14.00;8.13;;;3.10;99.90;;;;;;5053274;28;20959;-66
2022/12/08 03:05:53;;;;;;;18.53;9.07;;;3.10;99.90;;;;;;5053296;28;20473;-67
2022/12/08 03:08:27;;;;;;;14.17;8.73;;;3.10;99.90;;;;;;5053537;28;20454;-66
2022/12/08 03:11:02;;;;;;;18.90;8.33;;;3.20;99.90;;;;;;5053475;28;20454;-66
2022/12/08 03:13:34;;;;;;;13.80;7.70;;;3.20;99.90;;;;;;5053253;28;20455;-64
2022/12/08 03:16:02;;;;;;;14.83;8.37;;;3.20;99.90;;;;;;5053106;28;20453;-65
2022/12/08 03:18:32;;;;;;;13.53;7.23;;;3.20;99.90;;;;;;5053241;28;20493;-64
2022/12/08 03:21:00;;;;;;;13.17;7.70;;;3.20;99.90;;;;;;5053214;28;20456;-64
2022/12/08 03:23:27;;;;;;;14.90;7.80;;;3.20;99.90;;;;;;5053065;28;20457;-65
2022/12/08 03:25:59;;;;;;;12.70;7.27;;;3.20;99.90;;;;;;5053095;28;20876;-66
2022/12/08 03:28:26;;;;;;;15.80;7.70;;;3.20;99.90;;;;;;5052942;28;20453;-66
2022/12/08 03:30:56;;;;;;;13.40;7.83;;;3.20;99.90;;;;;;5052962;28;20461;-66
2022/12/08 03:33:26;;;;;;;13.50;7.43;;;3.20;99.90;;;;;;5053016;28;20459;-66
2022/12/08 03:35:54;;;;;;;13.50;7.67;;;3.20;99.90;;;;;;5052777;28;20503;-66
2022/12/08 03:38:22;;;;;;;12.97;8.20;;;3.20;99.90;;;;;;5052520;28;21011;-67
2022/12/08 03:41:17;;;;;;;13.73;7.83;;;3.20;99.90;;;;;;5052670;28;20972;-66
2022/12/08 03:43:35;;;;;;;13.37;7.50;;;3.20;99.90;;;;;;5052443;28;20859;-66
2022/12/08 03:46:02;;;;;;;10.17;6.93;;;3.20;99.90;;;;;;5052528;28;20453;-66
2022/12/08 03:48:29;;;;;;;10.50;6.40;;;3.10;99.90;;;;;;5052607;28;20444;-66
2022/12/08 03:50:56;;;;;;;9.63;6.60;;;3.10;99.90;;;;;;5052253;28;20752;-66
2022/12/08 03:53:24;;;;;;;12.47;6.93;;;3.10;99.90;;;;;;5051973;28;20453;-66
2022/12/08 03:55:50;;;;;;;13.13;7.13;;;3.10;99.90;;;;;;5052288;28;20886;-66
2022/12/08 03:58:17;;;;;;;15.97;7.57;;;3.10;99.90;;;;;;5052435;28;20446;-66
2022/12/08 04:00:44;;;;;;;14.20;6.63;;;3.10;99.90;;;;;;5052478;28;20457;-66
2022/12/08 04:03:11;;;;;;;13.80;7.53;;;3.00;99.90;;;;;;5052181;28;20500;-66
2022/12/08 04:05:37;;;;;;;18.20;7.73;;;3.00;99.90;;;;;;5052075;28;20474;-66
2022/12/08 04:08:04;;;;;;;17.40;7.37;;;3.00;99.90;;;;;;5052462;28;20869;-66
2022/12/08 04:10:32;;;;;;;14.70;8.20;;;3.00;99.90;;;;;;5052290;28;20464;-66
2022/12/08 04:12:59;;;;;;;13.10;7.33;;;3.00;99.90;;;;;;5052171;28;20513;-67
2022/12/08 04:15:26;;;;;;;11.30;6.83;;;3.00;99.90;;;;;;5051468;28;20465;-66
2022/12/08 04:17:52;;;;;;;15.50;7.00;;;2.90;99.90;;;;;;5052085;28;20445;-66
2022/12/08 04:20:19;;;;;;;12.93;7.10;;;3.00;99.90;;;;;;5051941;28;20485;-66
2022/12/08 04:22:46;;;;;;;12.43;6.97;;;3.00;99.90;;;;;;5051920;28;20453;-66
2022/12/08 04:25:12;;;;;;;13.63;6.90;;;2.90;99.90;;;;;;5051819;28;20841;-66
2022/12/08 04:27:40;;;;;;;11.20;6.90;;;2.90;99.90;;;;;;5051871;28;20453;-66
2022/12/08 04:30:08;;;;;;;14.00;6.87;;;2.90;99.90;;;;;;5051809;28;20508;-67
2022/12/08 04:32:35;;;;;;;11.93;6.60;;;2.90;99.90;;;;;;5051708;28;20446;-66
2022/12/08 04:35:02;;;;;;;11.07;7.10;;;3.00;99.90;;;;;;5051633;28;20469;-66
2022/12/08 04:37:28;;;;;;;10.67;6.77;;;2.90;99.90;;;;;;5051797;28;20476;-66
2022/12/08 04:39:55;;;;;;;11.83;6.30;;;3.00;99.90;;;;;;5051698;28;20481;-66
2022/12/08 04:42:22;;;;;;;14.67;7.83;;;3.00;99.90;;;;;;5051511;28;20452;-67
2022/12/08 04:44:50;;;;;;;12.43;7.37;;;3.00;99.90;;;;;;5051825;28;20473;-66
2022/12/08 04:47:16;;;;;;;11.83;6.60;;;3.00;99.90;;;;;;5051784;28;20451;-67
2022/12/08 04:49:43;;;;;;;11.03;6.80;;;3.00;99.90;;;;;;5051610;28;20450;-66
2022/12/08 04:52:10;;;;;;;14.73;6.90;;;3.10;99.90;;;;;;5051615;28;20450;-66
2022/12/08 04:54:36;;;;;;;11.53;8.17;;;3.10;99.90;;;;;;5051304;28;20981;-66
2022/12/08 04:57:03;;;;;;;14.73;7.23;;;3.10;99.90;;;;;;5051299;28;20460;-66
2022/12/08 04:59:30;;;;;;;12.40;7.53;;;3.10;99.90;;;;;;5051686;28;20490;-67
2022/12/08 05:01:58;;;;;;;10.67;7.53;;;3.10;99.90;;;;;;5051548;28;20447;-66
2022/12/08 05:04:25;;;;;;;23.10;9.93;;;3.10;99.90;;;;;;5057118;28;20470;-66
2022/12/08 05:06:51;;;;;;;15.37;8.77;;;3.10;99.90;;;;;;5058034;28;20449;-67
2022/12/08 05:09:18;;;;;;;15.43;9.37;;;3.10;99.90;;;;;;5058426;28;20471;-66
2022/12/08 05:11:45;;;;;;;18.83;10.50;;;3.00;99.90;;;;;;5057814;28;20514;-66
2022/12/08 05:14:14;;;;;;;17.43;10.10;;;3.00;99.90;;;;;;5058264;28;20525;-66
2022/12/08 05:16:41;;;;;;;17.77;10.80;;;3.00;99.90;;;;;;5057621;28;20866;-66
2022/12/08 05:19:09;;;;;;;17.20;10.33;;;3.00;99.90;;;;;;5057887;28;20481;-66
2022/12/08 05:21:35;;;;;;;18.97;9.83;;;3.00;99.90;;;;;;5057767;28;20864;-64
2022/12/08 05:24:02;;;;;;;18.93;10.27;;;3.00;99.90;;;;;;5057999;28;20466;-65
2022/12/08 05:26:29;;;;;;;18.93;10.20;;;3.00;99.90;;;;;;5057947;28;20450;-66
2022/12/08 05:28:55;;;;;;;20.33;9.77;;;3.00;99.90;;;;;;5057956;28;20457;-66
2022/12/08 05:31:22;;;;;;;14.87;9.27;;;3.00;99.90;;;;;;5057902;28;20454;-66
2022/12/08 05:33:50;;;;;;;16.57;8.53;;;2.90;99.90;;;;;;5057787;28;20469;-66
2022/12/08 05:36:19;;;;;;;17.73;9.67;;;3.00;99.90;;;;;;5057546;28;20964;-66
2022/12/08 05:38:46;;;;;;;17.63;9.47;;;2.90;99.90;;;;;;5057936;28;20599;-66
2022/12/08 05:41:16;;;;;;;20.10;9.40;;;2.90;99.90;;;;;;5057911;28;20494;-66
2022/12/08 05:43:43;;;;;;;15.17;9.90;;;2.90;99.90;;;;;;5057747;28;20449;-66
2022/12/08 05:46:10;;;;;;;14.77;8.80;;;2.90;99.90;;;;;;5057732;28;20499;-66
2022/12/08 05:48:37;;;;;;;17.30;10.13;;;2.90;99.90;;;;;;5057495;28;20457;-66
2022/12/08 05:51:04;;;;;;;12.40;8.50;;;2.90;99.90;;;;;;5057608;28;20449;-66
2022/12/08 05:53:32;;;;;;;17.30;9.00;;;2.90;99.90;;;;;;5057650;28;20445;-66
2022/12/08 05:55:59;;;;;;;21.87;10.60;;;2.90;99.90;;;;;;5057487;28;20453;-66
2022/12/08 05:58:26;;;;;;;26.10;10.87;;;2.90;99.90;;;;;;5057538;28;20453;-67
2022/12/08 06:00:52;;;;;;;24.10;12.27;;;2.90;99.90;;;;;;5057508;28;20538;-66
2022/12/08 06:03:19;;;;;;;22.73;13.13;;;2.90;99.90;;;;;;5057417;28;20458;-66
2022/12/08 06:05:46;;;;;;;25.23;12.93;;;2.90;99.90;;;;;;5057599;28;20524;-66
2022/12/08 06:08:13;;;;;;;21.97;11.80;;;2.90;99.90;;;;;;5057623;28;20483;-67
2022/12/08 06:10:43;;;;;;;30.07;14.97;;;2.90;99.90;;;;;;5057570;28;20445;-66
2022/12/08 06:13:09;;;;;;;27.07;14.60;;;2.80;99.90;;;;;;5057617;28;20502;-66
2022/12/08 06:15:37;;;;;;;28.60;14.80;;;2.80;99.90;;;;;;5053622;28;20837;-66
2022/12/08 06:18:05;;;;;;;26.30;13.87;;;2.80;99.90;;;;;;5054535;28;20453;-66
2022/12/08 06:20:32;;;;;;;25.50;13.37;;;2.90;99.90;;;;;;5054227;28;20484;-66
2022/12/08 06:22:58;;;;;;;32.83;15.20;;;2.80;99.90;;;;;;5054128;28;20454;-66
2022/12/08 06:25:25;;;;;;;36.90;14.27;;;2.80;99.90;;;;;;5053897;28;20472;-66
2022/12/08 06:27:53;;;;;;;33.37;14.87;;;2.80;99.90;;;;;;5053968;28;20449;-66
2022/12/08 06:30:20;;;;;;;28.27;14.30;;;2.80;99.90;;;;;;5054174;28;20442;-66
2022/12/08 06:32:46;;;;;;;32.93;15.27;;;2.80;99.90;;;;;;5054193;28;20445;-66
2022/12/08 06:35:13;;;;;;;31.73;16.63;;;2.80;99.90;;;;;;5053811;28;20469;-66
2022/12/08 06:37:40;;;;;;;33.97;15.20;;;2.90;99.90;;;;;;5053895;28;20945;-66
2022/12/08 06:40:08;;;;;;;34.90;14.50;;;2.90;99.90;;;;;;5053700;28;20830;-66
2022/12/08 06:42:43;;;;;;;29.53;14.87;;;2.90;99.90;;;;;;5053951;28;20491;-66
2022/12/08 06:45:13;;;;;;;25.37;14.00;;;2.90;99.90;;;;;;5053540;28;20987;-66
2022/12/08 06:47:39;;;;;;;24.53;11.97;;;2.90;99.90;;;;;;5053951;28;20454;-66
2022/12/08 06:50:11;;;;;;;22.50;11.53;;;2.90;99.90;;;;;;5053404;28;20441;-66
2022/12/08 06:52:39;;;;;;;25.43;12.07;;;2.90;99.90;;;;;;5053751;28;20453;-67
2022/12/08 06:55:07;;;;;;;29.03;12.83;;;2.80;99.90;;;;;;5053362;28;20481;-64
2022/12/08 06:57:33;;;;;;;31.87;13.20;;;2.90;99.90;;;;;;5053743;28;20449;-65
2022/12/08 07:00:00;;;;;;;26.67;13.10;;;2.80;99.90;;;;;;5053504;28;20512;-65
2022/12/08 07:02:28;;;;;;;28.57;13.90;;;2.80;99.90;;;;;;5053590;28;20476;-65
2022/12/08 07:04:55;;;;;;;28.20;13.07;;;2.80;99.90;;;;;;5053231;28;20500;-65
2022/12/08 07:07:22;;;;;;;20.20;11.33;;;2.80;99.90;;;;;;5053292;28;20450;-65
2022/12/08 07:09:48;;;;;;;19.67;11.77;;;2.80;99.90;;;;;;5053534;28;20438;-65
2022/12/08 07:12:15;;;;;;;22.33;11.30;;;2.90;99.90;;;;;;5053484;28;20449;-65
2022/12/08 07:14:42;;;;;;;26.40;11.67;;;2.90;99.90;;;;;;5053285;28;20471;-67
2022/12/08 07:17:08;;;;;;;21.13;11.07;;;2.90;99.90;;;;;;5052934;28;20456;-65
2022/12/08 07:19:36;;;;;;;15.87;9.90;;;2.90;99.90;;;;;;5052921;28;20478;-66
2022/12/08 07:22:03;;;;;;;17.40;9.70;;;2.90;99.90;;;;;;5053212;28;20472;-65
2022/12/08 07:24:30;;;;;;;17.27;9.87;;;2.90;99.90;;;;;;5052955;28;20474;-65
2022/12/08 07:26:56;;;;;;;22.87;9.63;;;2.90;99.90;;;;;;5051818;28;20452;-65
2022/12/08 07:29:23;;;;;;;15.70;9.57;;;2.90;99.90;;;;;;5052983;28;20441;-66
2022/12/08 07:31:50;;;;;;;13.73;8.87;;;2.90;99.90;;;;;;5052889;28;20476;-65
2022/12/08 07:34:16;;;;;;;19.47;9.67;;;2.90;99.90;;;;;;5052630;28;20477;-65
2022/12/08 07:36:44;;;;;;;18.90;8.77;;;2.90;99.90;;;;;;5052923;28;20433;-65
2022/12/08 07:39:11;;;;;;;15.23;7.87;;;2.90;99.90;;;;;;5052744;28;20869;-66
2022/12/08 07:41:38;;;;;;;16.90;8.40;;;2.90;99.90;;;;;;5052788;28;20450;-65
2022/12/08 07:44:04;;;;;;;13.80;7.03;;;3.00;99.90;;;;;;5052716;28;20469;-66
2022/12/08 07:46:31;;;;;;;11.90;6.80;;;3.00;99.90;;;;;;5052347;28;20465;-66
2022/12/08 07:48:58;;;;;;;12.87;6.40;;;3.00;99.90;;;;;;5052806;28;20460;-66
2022/12/08 07:51:25;;;;;;;10.97;6.27;;;3.00;99.90;;;;;;5052496;28;20456;-66
2022/12/08 07:53:53;;;;;;;10.40;6.13;;;3.10;99.90;;;;;;5052818;28;20473;-66
2022/12/08 07:56:21;;;;;;;13.47;7.13;;;3.10;99.90;;;;;;5052211;28;20487;-66
2022/12/08 07:58:47;;;;;;;8.33;6.40;;;3.20;99.90;;;;;;5052317;28;20817;-66
2022/12/08 08:01:23;;;;;;;8.00;6.20;;;3.20;99.90;;;;;;5051935;28;20486;-66
2022/12/08 08:03:49;;;;;;;10.67;5.90;;;3.30;99.90;;;;;;5052448;28;20480;-66
2022/12/08 08:06:16;;;;;;;13.60;7.17;;;3.30;99.90;;;;;;5052268;28;20452;-66
2022/12/08 08:08:43;;;;;;;6.83;5.43;;;3.40;99.90;;;;;;5052399;28;20446;-66
2022/12/08 08:11:11;;;;;;;10.33;5.53;;;3.40;99.90;;;;;;5052136;28;20445;-66
2022/12/08 08:13:38;;;;;;;8.03;5.60;;;3.50;99.90;;;;;;5051910;28;20531;-66
2022/12/08 08:16:06;;;;;;;11.07;6.53;;;3.50;99.90;;;;;;5051642;28;20453;-66
2022/12/08 08:18:33;;;;;;;10.40;5.77;;;3.50;99.90;;;;;;5052174;28;20445;-66
2022/12/08 08:21:00;;;;;;;11.50;6.57;;;3.50;99.90;;;;;;5051733;28;20507;-66
2022/12/08 08:23:27;;;;;;;9.40;6.30;;;3.50;99.90;;;;;;5051830;28;20940;-65
2022/12/08 08:25:54;;;;;;;9.30;6.30;;;3.50;99.90;;;;;;5051495;28;21025;-65
2022/12/08 08:28:22;;;;;;;13.07;6.00;;;3.50;99.90;;;;;;5052000;28;20499;-65
2022/12/08 08:30:48;;;;;;;12.47;6.23;;;3.60;99.90;;;;;;5051879;28;20451;-66
2022/12/08 08:33:15;;;;;;;15.40;6.40;;;3.60;99.90;;;;;;5051877;28;20460;-66
2022/12/08 08:35:42;;;;;;;10.27;6.20;;;3.60;99.90;;;;;;5051510;28;20469;-66
2022/12/08 08:38:08;;;;;;;10.90;6.13;;;3.60;99.90;;;;;;5051322;28;20840;-66
2022/12/08 08:40:36;;;;;;;11.47;6.50;;;3.60;99.90;;;;;;5051369;28;20900;-65
2022/12/08 08:43:03;;;;;;;13.03;6.27;;;3.60;99.90;;;;;;5051863;28;20484;-66
2022/12/08 08:45:31;;;;;;;14.27;7.03;;;3.60;99.90;;;;;;5051505;28;20824;-67
2022/12/08 08:47:58;;;;;;;12.30;7.30;;;3.70;99.90;;;;;;5051758;28;20455;-66
2022/12/08 08:50:25;;;;;;;13.60;7.10;;;3.70;99.90;;;;;;5051383;28;20495;-66
2022/12/08 08:52:52;;;;;;;13.10;6.57;;;3.70;99.90;;;;;;5051380;28;20466;-66
2022/12/08 08:55:19;;;;;;;11.27;6.83;;;3.70;99.90;;;;;;5051366;28;20490;-66
2022/12/08 08:57:45;;;;;;;10.37;5.57;;;3.70;99.90;;;;;;5051767;28;20481;-66
2022/12/08 09:00:13;;;;;;;11.83;6.73;;;3.70;99.90;;;;;;5051434;28;20575;-66
2022/12/08 09:02:41;;;;;;;14.40;7.27;;;3.70;99.90;;;;;;5051496;28;20519;-66
2022/12/08 09:05:08;;;;;;;12.80;6.13;;;3.70;99.90;;;;;;5051133;28;20476;-66
2022/12/08 09:07:35;;;;;;;9.93;6.20;;;3.80;99.90;;;;;;5051654;28;20449;-66
2022/12/08 09:10:02;;;;;;;8.73;5.97;;;3.80;99.90;;;;;;5051442;28;20449;-66
2022/12/08 09:12:28;;;;;;;10.20;5.70;;;3.80;99.90;;;;;;5051638;28;20453;-66
2022/12/08 09:14:55;;;;;;;10.13;6.67;;;3.80;99.90;;;;;;5051282;28;20468;-66
2022/12/08 09:17:22;;;;;;;10.90;6.53;;;3.80;99.90;;;;;;5050808;28;20814;-66
2022/12/08 09:19:50;;;;;;;11.37;6.07;;;3.80;99.90;;;;;;5051459;28;20481;-66
2022/12/08 09:22:16;;;;;;;8.90;6.43;;;3.90;99.90;;;;;;5051311;28;20459;-66
2022/12/08 09:24:43;;;;;;;9.90;5.77;;;3.90;99.90;;;;;;5051255;28;20469;-65
2022/12/08 09:27:10;;;;;;;6.90;5.17;;;3.90;99.90;;;;;;5051311;28;20452;-66
2022/12/08 09:29:36;;;;;;;10.67;6.17;;;3.90;99.90;;;;;;5051218;28;20449;-66
2022/12/08 09:32:03;;;;;;;12.37;6.27;;;3.90;99.90;;;;;;5050908;28;20437;-66
2022/12/08 09:34:30;;;;;;;9.83;6.67;;;3.90;99.90;;;;;;5051323;28;20472;-66
2022/12/08 09:36:58;;;;;;;8.30;5.77;;;4.00;99.90;;;;;;5050956;28;20757;-66
2022/12/08 09:39:25;;;;;;;14.97;6.13;;;4.00;99.90;;;;;;5051162;28;20860;-66
2022/12/08 09:41:58;;;;;;;9.17;6.10;;;4.00;99.90;;;;;;5050918;28;20483;-66
2022/12/08 09:44:50;;;;;;;11.80;7.00;;;4.00;99.90;;;;;;5051047;28;20469;-66
2022/12/08 09:47:22;;;;;;;11.50;6.27;;;4.00;99.90;;;;;;5051245;28;20452;-66
2022/12/08 09:49:54;;;;;;;8.80;5.67;;;4.00;99.90;;;;;;5051782;28;20445;-66
2022/12/08 09:52:26;;;;;;;10.57;6.80;;;4.00;99.90;;;;;;5054763;28;20518;-66
2022/12/08 09:54:53;;;;;;;15.23;7.33;;;4.00;99.90;;;;;;5054424;28;20469;-66
2022/12/08 09:57:22;;;;;;;10.70;6.60;;;4.00;99.90;;;;;;5054912;28;20799;-66
2022/12/08 09:59:53;;;;;;;8.57;5.73;;;4.00;99.90;;;;;;5054728;28;20559;-66
2022/12/08 10:02:23;;;;;;;11.83;6.00;;;4.00;99.90;;;;;;5054663;28;20451;-66
2022/12/08 10:04:50;;;;;;;7.97;5.83;;;4.10;99.90;;;;;;5054463;28;20491;-66
2022/12/08 10:07:20;;;;;;;11.73;6.93;;;4.10;99.90;;;;;;5055021;28;20885;-66
2022/12/08 10:09:58;;;;;;;11.63;5.73;;;4.10;99.90;;;;;;5054770;28;20457;-66
2022/12/08 10:12:33;;;;;;;11.77;6.67;;;4.10;99.90;;;;;;5054529;28;20950;-66
2022/12/08 10:15:10;;;;;;;13.50;5.37;;;4.10;99.90;;;;;;5054143;28;21056;-65
2022/12/08 10:17:44;;;;;;;10.30;5.53;;;4.10;99.90;;;;;;5053845;28;20458;-65
2022/12/08 10:20:15;;;;;;;11.67;6.07;;;4.10;99.90;;;;;;5054404;28;20479;-66
2022/12/08 10:22:41;;;;;;;11.17;5.60;;;4.20;99.90;;;;;;5054389;28;20452;-66
2022/12/08 10:25:17;;;;;;;12.00;6.60;;;4.20;99.90;;;;;;5054177;28;20837;-66
2022/12/08 10:27:48;;;;;;;9.63;5.33;;;4.30;99.90;;;;;;5054018;28;20453;-66
2022/12/08 10:30:17;;;;;;;7.53;5.03;;;4.30;99.90;;;;;;5054276;28;20456;-66
2022/12/08 10:32:46;;;;;;;12.27;5.27;;;4.40;99.90;;;;;;5053926;28;20967;-66
2022/12/08 10:35:14;;;;;;;10.43;5.13;;;4.40;99.90;;;;;;5053996;28;20475;-66
2022/12/08 10:37:41;;;;;;;7.07;4.90;;;4.50;99.90;;;;;;5054067;28;20456;-66
2022/12/08 10:40:13;;;;;;;5.27;4.60;;;4.50;99.90;;;;;;5053860;28;20454;-66
2022/12/08 10:42:42;;;;;;;8.57;6.77;;;4.60;99.90;;;;;;5053825;28;20455;-66
2022/12/08 10:45:21;;;;;;;7.60;4.57;;;4.60;99.90;;;;;;5053837;28;20499;-66
2022/12/08 10:47:57;;;;;;;6.60;4.93;;;4.60;99.90;;;;;;5053942;28;20457;-66
2022/12/08 10:50:32;;;;;;;7.17;5.20;;;4.60;99.90;;;;;;5053817;28;20446;-66
2022/12/08 10:53:01;;;;;;;7.20;4.80;;;4.60;99.90;;;;;;5053531;28;20448;-66
2022/12/08 10:55:38;;;;;;;7.47;4.53;;;4.60;99.90;;;;;;5053368;28;21102;-66
2022/12/08 10:58:05;;;;;;;8.10;5.37;;;4.60;99.90;;;;;;5053712;28;20444;-66
2022/12/08 11:00:32;;;;;;;9.13;5.90;;;4.60;99.90;;;;;;5053207;28;20483;-67
2022/12/08 11:03:01;;;;;;;8.73;5.03;;;4.70;99.90;;;;;;5053407;28;20460;-65
2022/12/08 11:05:31;;;;;;;6.67;5.17;;;4.70;99.90;;;;;;5053166;28;20474;-66
2022/12/08 11:07:58;;;;;;;5.30;4.40;;;4.70;99.90;;;;;;5053621;28;20450;-66
2022/12/08 11:10:33;;;;;;;6.00;4.80;;;4.70;99.90;;;;;;5053474;28;20463;-66
2022/12/08 11:13:02;;;;;;;13.20;5.30;;;4.70;99.90;;;;;;5053253;28;20875;-65
2022/12/08 11:15:36;;;;;;;9.30;5.80;;;4.80;99.90;;;;;;5052778;28;20992;-66
2022/12/08 11:18:09;;;;;;;5.93;5.00;;;4.80;99.90;;;;;;5053550;28;20447;-65
2022/12/08 11:20:40;;;;;;;8.20;4.93;;;4.80;99.90;;;;;;5053236;28;20541;-65
2022/12/08 11:23:19;;;;;;;8.10;4.90;;;4.80;99.90;;;;;;5053151;28;20534;-66
2022/12/08 11:25:49;;;;;;;22.70;8.87;;;4.80;99.90;;;;;;5052826;28;20531;-65
2022/12/08 11:28:19;;;;;;;7.40;5.30;;;4.70;99.90;;;;;;5053309;28;20498;-65
2022/12/08 11:30:49;;;;;;;8.27;4.20;;;4.70;99.90;;;;;;5053040;28;20445;-65
2022/12/08 11:33:19;;;;;;;7.50;4.60;;;4.70;99.90;;;;;;5053001;28;20454;-66
2022/12/08 11:35:51;;;;;;;6.67;4.17;;;4.70;99.90;;;;;;5052777;28;20461;-66
2022/12/08 11:38:21;;;;;;;7.57;5.33;;;4.70;99.90;;;;;;5052718;28;20475;-65
2022/12/08 11:40:51;;;;;;;9.60;4.70;;;4.70;99.90;;;;;;5052850;28;20495;-66
2022/12/08 11:43:23;;;;;;;6.17;4.10;;;4.70;99.90;;;;;;5052873;28;20454;-65
2022/12/08 11:45:53;;;;;;;7.23;3.87;;;4.70;99.90;;;;;;5052715;28;20640;-66
2022/12/08 11:48:29;;;;;;;6.00;4.30;;;4.70;99.90;;;;;;5052742;28;20452;-66
2022/12/08 11:51:00;;;;;;;9.80;4.60;;;4.60;99.90;;;;;;5052486;28;20450;-66
2022/12/08 11:53:31;;;;;;;8.37;4.20;;;4.60;99.90;;;;;;5052697;28;20452;-66
2022/12/08 11:56:06;;;;;;;4.30;3.90;;;4.50;99.90;;;;;;5052421;28;20466;-66
2022/12/08 11:58:39;;;;;;;4.90;3.90;;;4.50;99.90;;;;;;5052486;28;20447;-66
2022/12/08 12:01:05;;;;;;;8.00;4.30;;;4.50;99.90;;;;;;5052139;28;20919;-66
2022/12/08 12:03:37;;;;;;;5.27;4.47;;;4.50;99.90;;;;;;5052189;28;20507;-66
2022/12/08 12:06:26;;;;;;;6.87;4.57;;;4.50;99.90;;;;;;5052370;28;20456;-65
2022/12/08 12:09:03;;;;;;;6.23;4.00;;;4.50;99.90;;;;;;5052738;28;20460;-66
2022/12/08 12:14:43;;;;;;;6.23;3.77;;;4.40;99.90;;;;;;5051649;28;20454;-66
2022/12/08 12:17:25;;;;;;;10.67;3.87;;;4.40;99.90;;;;;;5051923;28;20455;-66
2022/12/08 12:19:53;;;;;;;10.13;4.70;;;4.40;99.90;;;;;;5052377;28;20456;-66
2022/12/08 12:22:22;;;;;;;7.97;4.57;;;4.40;99.90;;;;;;5051998;28;20484;-66
2022/12/08 12:24:51;;;;;;;4.83;4.37;;;4.40;99.90;;;;;;5051867;28;20465;-66
2022/12/08 12:27:27;;;;;;;7.53;4.50;;;4.40;99.90;;;;;;5051978;28;20450;-66
2022/12/08 12:29:58;;;;;;;4.60;4.10;;;4.50;99.90;;;;;;5051625;28;20474;-66
2022/12/08 12:32:27;;;;;;;6.07;4.33;;;4.50;99.90;;;;;;5052168;28;20446;-66
2022/12/08 12:34:56;;;;;;;4.50;4.10;;;4.60;99.90;;;;;;5051750;28;20471;-66
2022/12/08 12:37:24;;;;;;;8.07;4.10;;;4.60;99.90;;;;;;5051894;28;20456;-66
2022/12/08 12:39:58;;;;;;;9.13;4.67;;;4.60;99.90;;;;;;5051737;28;20449;-66
2022/12/08 12:42:39;;;;;;;7.60;5.10;;;4.60;99.90;;;;;;5051620;28;20814;-66
2022/12/08 12:45:25;;;;;;;4.80;4.33;;;4.60;99.90;;;;;;5051458;28;20479;-65
2022/12/08 12:48:08;;;;;;;8.20;4.97;;;4.60;99.90;;;;;;5051808;28;20459;-66
2022/12/08 12:50:42;;;;;;;9.20;4.20;;;4.60;99.90;;;;;;5051533;28;20502;-66
2022/12/08 12:53:48;;;;;;;9.20;4.93;;;4.60;99.90;;;;;;5051490;28;20453;-66
2022/12/08 12:56:49;;;;;;;4.57;3.90;;;4.60;99.90;;;;;;5051278;28;20543;-66
2022/12/08 12:59:36;;;;;;;7.00;4.10;;;4.60;99.90;;;;;;5051247;28;20452;-66
2022/12/08 13:02:03;;;;;;;7.23;4.83;;;4.50;99.90;;;;;;5051531;28;20489;-66
2022/12/08 13:04:37;;;;;;;8.33;4.60;;;4.50;99.90;;;;;;5051421;28;20478;-66
2022/12/08 13:07:04;;;;;;;7.43;5.00;;;4.50;99.90;;;;;;5051373;28;20803;-66
2022/12/08 13:09:35;;;;;;;10.40;4.80;;;4.50;99.90;;;;;;5051206;28;20446;-65